createdAt,value
2023-02-23T00:02:07.320Z,64.53
2023-02-23T00:04:35.964Z,64.41
2023-02-23T00:07:02.997Z,64.19
2023-02-23T00:09:35.311Z,64.35
2023-02-23T00:12:07.513Z,64.27
2023-02-23T00:14:37.769Z,64.15
2023-02-23T00:17:10.653Z,64.37
2023-02-23T00:19:37.633Z,64.21
2023-02-23T00:22:04.417Z,64.20
2023-02-23T00:24:31.222Z,64.24
2023-02-23T00:26:58.471Z,64.19
2023-02-23T00:29:25.278Z,64.14
2023-02-23T00:31:52.779Z,64.32
2023-02-23T00:34:21.089Z,64.30
2023-02-23T00:36:54.071Z,64.16
2023-02-23T00:39:21.259Z,64.22
2023-02-23T00:41:49.831Z,64.28
2023-02-23T00:44:16.881Z,64.28
2023-02-23T00:46:45.268Z,64.28
2023-02-23T00:49:13.634Z,64.37
2023-02-23T00:51:40.527Z,64.62
2023-02-23T00:54:08.196Z,64.46
2023-02-23T00:56:35.045Z,64.52
2023-02-23T00:59:02.132Z,64.65
2023-02-23T01:01:29.040Z,64.50
2023-02-23T01:03:55.965Z,64.66
2023-02-23T01:06:23.165Z,64.52
2023-02-23T01:08:56.632Z,64.30
2023-02-23T01:11:28.778Z,64.58
2023-02-23T01:13:58.736Z,64.57
2023-02-23T01:16:31.199Z,64.35
2023-02-23T01:19:01.292Z,64.54
2023-02-23T01:21:32.156Z,64.45
2023-02-23T01:23:59.620Z,64.54
2023-02-23T01:26:30.440Z,64.74
2023-02-23T01:29:08.678Z,64.58
2023-02-23T01:31:38.071Z,64.57
2023-02-23T01:34:06.455Z,64.35
2023-02-23T01:36:36.686Z,64.57
2023-02-23T01:39:07.677Z,64.45
2023-02-23T01:41:36.955Z,64.59
2023-02-23T01:44:28.038Z,64.40
2023-02-23T01:46:54.821Z,64.64
2023-02-23T01:49:29.757Z,64.78
2023-02-23T01:52:11.016Z,64.55
2023-02-23T01:54:51.184Z,64.61
2023-02-23T01:57:22.435Z,64.81
2023-02-23T01:59:52.428Z,64.43
2023-02-23T02:02:23.766Z,64.52
2023-02-23T02:04:52.073Z,64.64
2023-02-23T02:07:24.032Z,64.44
2023-02-23T02:10:22.024Z,64.26
2023-02-23T02:12:57.241Z,64.39
2023-02-23T02:15:29.520Z,64.75
2023-02-23T02:18:24.874Z,64.46
2023-02-23T02:21:43.144Z,64.81
2023-02-23T02:25:01.582Z,64.82
2023-02-23T02:28:17.908Z,65.12
2023-02-23T02:31:41.283Z,65.40
2023-02-23T02:34:32.506Z,65.35
2023-02-23T02:37:56.936Z,65.93
2023-02-23T02:41:03.856Z,65.69
2023-02-23T02:43:50.906Z,66.02
2023-02-23T02:46:22.662Z,66.46
2023-02-23T02:49:18.212Z,66.53
2023-02-23T02:52:27.281Z,66.84
2023-02-23T02:55:01.045Z,66.89
2023-02-23T02:57:29.849Z,66.86
2023-02-23T03:00:17.396Z,67.01
2023-02-23T03:03:03.016Z,66.98
2023-02-23T03:06:07.380Z,67.01
2023-02-23T03:09:44.610Z,67.17
2023-02-23T03:12:55.865Z,67.19
2023-02-23T03:16:18.844Z,67.47
2023-02-23T03:19:16.040Z,67.40
2023-02-23T03:22:17.466Z,67.54
2023-02-23T03:25:16.768Z,67.45
2023-02-23T03:28:24.934Z,67.52
2023-02-23T03:31:57.041Z,67.60
2023-02-23T03:34:54.912Z,67.72
2023-02-23T03:38:02.212Z,67.58
2023-02-23T03:40:54.668Z,67.64
2023-02-23T03:43:54.579Z,67.83
2023-02-23T03:46:40.902Z,68.08
2023-02-23T03:49:29.783Z,67.79
2023-02-23T03:52:24.738Z,68.03
2023-02-23T03:55:15.254Z,68.28
2023-02-23T03:58:05.733Z,68.04
2023-02-23T04:00:58.584Z,68.00
2023-02-23T04:03:45.132Z,68.04
2023-02-23T04:06:33.372Z,67.99
2023-02-23T04:09:23.734Z,68.00
2023-02-23T04:12:43.252Z,67.98
2023-02-23T04:15:17.868Z,68.09
2023-02-23T04:17:44.910Z,68.22
2023-02-23T04:20:14.253Z,67.99
2023-02-23T04:22:41.029Z,67.69
2023-02-23T04:25:08.931Z,67.81
2023-02-23T04:27:36.498Z,67.49
2023-02-23T04:30:04.285Z,67.64
2023-02-23T04:32:31.148Z,67.67
2023-02-23T04:34:57.967Z,67.82
2023-02-23T04:37:24.845Z,67.75
2023-02-23T04:39:51.626Z,67.68
2023-02-23T04:42:19.015Z,67.66
2023-02-23T04:44:46.415Z,67.32
2023-02-23T04:47:15.882Z,67.65
2023-02-23T04:49:43.851Z,67.78
2023-02-23T04:52:10.617Z,67.62
2023-02-23T04:54:41.029Z,67.50
2023-02-23T04:57:08.756Z,67.63
2023-02-23T04:59:36.105Z,67.45
2023-02-23T05:02:03.280Z,67.57
2023-02-23T05:04:30.510Z,67.50
2023-02-23T05:06:57.292Z,67.64
2023-02-23T05:09:24.142Z,67.63
2023-02-23T05:11:50.923Z,67.46
2023-02-23T05:14:17.701Z,67.38
2023-02-23T05:16:44.561Z,67.47
2023-02-23T05:19:11.933Z,67.26
2023-02-23T05:21:38.991Z,67.60
2023-02-23T05:24:06.108Z,67.40
2023-02-23T05:26:32.949Z,67.43
2023-02-23T05:28:59.813Z,67.56
2023-02-23T05:31:27.162Z,67.61
2023-02-23T05:33:54.075Z,67.52
2023-02-23T05:36:21.955Z,67.67
2023-02-23T05:38:49.216Z,67.65
2023-02-23T05:41:22.864Z,67.74
2023-02-23T05:43:53.850Z,67.78
2023-02-23T05:46:26.030Z,67.93
2023-02-23T05:48:59.175Z,67.74
2023-02-23T05:51:28.107Z,68.15
2023-02-23T05:53:54.964Z,68.12
2023-02-23T05:56:22.082Z,68.10
2023-02-23T05:58:57.772Z,68.11
2023-02-23T06:01:25.894Z,68.33
2023-02-23T06:03:52.779Z,68.28
2023-02-23T06:06:20.200Z,68.19
2023-02-23T06:08:47.641Z,68.03
2023-02-23T06:11:14.424Z,68.09
2023-02-23T06:13:41.210Z,68.14
2023-02-23T06:16:08.692Z,68.05
2023-02-23T06:18:35.674Z,68.02
2023-02-23T06:21:03.863Z,67.85
2023-02-23T06:23:32.012Z,68.18
2023-02-23T06:25:59.979Z,68.08
2023-02-23T06:28:28.192Z,68.10
2023-02-23T06:30:55.995Z,68.13
2023-02-23T06:33:23.887Z,68.18
2023-02-23T06:35:50.712Z,68.09
2023-02-23T06:38:17.564Z,68.12
2023-02-23T06:40:44.693Z,68.00
2023-02-23T06:43:11.862Z,68.21
2023-02-23T06:45:39.187Z,68.13
2023-02-23T06:48:06.492Z,68.21
2023-02-23T06:50:33.355Z,67.92
2023-02-23T06:53:00.374Z,68.01
2023-02-23T06:55:27.167Z,68.21
2023-02-23T06:57:54.317Z,67.94
2023-02-23T07:00:21.945Z,68.09
2023-02-23T07:02:48.862Z,68.07
2023-02-23T07:05:16.224Z,67.96
2023-02-23T07:07:43.290Z,68.24
2023-02-23T07:10:11.064Z,67.98
2023-02-23T07:12:38.880Z,67.93
2023-02-23T07:15:06.942Z,67.98
2023-02-23T07:17:33.735Z,68.07
2023-02-23T07:20:00.510Z,68.08
2023-02-23T07:22:30.155Z,68.04
2023-02-23T07:24:57.676Z,67.76
2023-02-23T07:27:25.619Z,68.15
2023-02-23T07:29:52.558Z,67.96
2023-02-23T07:32:19.489Z,67.93
2023-02-23T07:34:47.685Z,67.76
2023-02-23T07:37:14.517Z,68.13
2023-02-23T07:39:41.335Z,68.07
2023-02-23T07:42:08.131Z,68.01
2023-02-23T07:44:34.933Z,68.00
2023-02-23T07:47:01.697Z,68.11
2023-02-23T07:49:28.473Z,68.00
2023-02-23T07:51:55.232Z,67.95
2023-02-23T07:54:22.698Z,67.98
2023-02-23T07:56:49.457Z,68.02
2023-02-23T07:59:17.505Z,68.09
2023-02-23T08:01:44.675Z,67.95
2023-02-23T08:04:11.530Z,68.02
2023-02-23T08:06:38.396Z,68.00
2023-02-23T08:09:05.417Z,67.74
2023-02-23T08:11:32.378Z,67.92
2023-02-23T08:14:00.366Z,67.92
2023-02-23T08:16:33.197Z,67.88
2023-02-23T08:19:01.154Z,67.71
2023-02-23T08:21:29.350Z,68.01
2023-02-23T08:23:57.803Z,67.69
2023-02-23T08:26:25.519Z,67.78
2023-02-23T08:28:53.811Z,67.86
2023-02-23T08:31:23.779Z,67.93
2023-02-23T08:33:52.188Z,67.82
2023-02-23T08:36:20.676Z,68.08
2023-02-23T08:38:48.189Z,68.02
2023-02-23T08:41:15.357Z,67.59
2023-02-23T08:43:42.454Z,68.16
2023-02-23T08:46:11.207Z,68.18
2023-02-23T08:48:40.182Z,68.15
2023-02-23T08:51:08.284Z,68.25
2023-02-23T08:53:35.718Z,68.26
2023-02-23T08:56:06.144Z,68.39
2023-02-23T08:58:34.101Z,68.24
2023-02-23T09:01:01.113Z,68.27
2023-02-23T09:03:30.483Z,68.18
2023-02-23T09:06:05.338Z,68.58
2023-02-23T09:08:32.164Z,68.27
2023-02-23T09:10:58.928Z,68.60
2023-02-23T09:13:25.729Z,68.44
2023-02-23T09:15:52.483Z,68.56
2023-02-23T09:18:19.319Z,68.57
2023-02-23T09:20:46.292Z,68.76
2023-02-23T09:23:13.442Z,68.67
2023-02-23T09:25:44.837Z,68.46
2023-02-23T09:28:14.978Z,68.82
2023-02-23T09:30:44.025Z,68.72
2023-02-23T09:33:11.765Z,68.86
2023-02-23T09:35:39.526Z,68.83
2023-02-23T09:38:07.716Z,68.81
2023-02-23T09:40:49.645Z,68.89
2023-02-23T09:43:45.247Z,68.89
2023-02-23T09:46:29.356Z,68.78
2023-02-23T09:48:59.545Z,68.92
2023-02-23T09:51:26.707Z,69.37
2023-02-23T09:54:02.122Z,68.97
2023-02-23T09:56:46.426Z,68.97
2023-02-23T09:59:19.473Z,69.16
2023-02-23T10:02:05.515Z,69.36
2023-02-23T10:04:43.758Z,69.00
2023-02-23T10:07:39.032Z,69.29
2023-02-23T10:10:36.697Z,69.22
2023-02-23T10:13:31.776Z,69.39
2023-02-23T10:16:04.156Z,69.53
2023-02-23T10:19:06.855Z,69.64
2023-02-23T10:21:41.975Z,69.55
2023-02-23T10:24:22.570Z,69.38
2023-02-23T10:27:10.185Z,69.41
2023-02-23T10:29:55.564Z,69.38
2023-02-23T10:32:49.356Z,69.52
2023-02-23T10:35:20.346Z,69.64
2023-02-23T10:37:52.419Z,69.63
2023-02-23T10:40:24.422Z,69.71
2023-02-23T10:42:53.387Z,69.47
2023-02-23T10:45:24.558Z,69.56
2023-02-23T10:48:00.637Z,69.48
2023-02-23T10:50:29.133Z,69.48
2023-02-23T10:53:04.034Z,69.44
2023-02-23T10:55:32.486Z,69.58
2023-02-23T10:58:19.343Z,69.60
2023-02-23T11:00:58.152Z,69.63
2023-02-23T11:03:57.597Z,69.56
2023-02-23T11:06:40.514Z,69.53
2023-02-23T11:09:44.496Z,69.60
2023-02-23T11:12:29.530Z,69.57
2023-02-23T11:14:58.324Z,69.84
2023-02-23T11:17:37.368Z,69.80
2023-02-23T11:20:26.535Z,70.04
2023-02-23T11:23:03.665Z,69.92
2023-02-23T11:25:37.499Z,69.78
2023-02-23T11:28:04.476Z,69.93
2023-02-23T11:30:38.189Z,69.69
2023-02-23T11:33:11.115Z,69.60
2023-02-23T11:35:38.944Z,69.52
2023-02-23T11:38:28.497Z,69.56
2023-02-23T11:41:17.610Z,69.56
2023-02-23T11:43:57.146Z,69.65
2023-02-23T11:46:25.934Z,69.48
2023-02-23T11:49:09.013Z,69.45
2023-02-23T11:51:41.597Z,69.55
2023-02-23T11:54:25.320Z,69.64
2023-02-23T11:56:54.999Z,69.61
2023-02-23T11:59:29.772Z,69.48
2023-02-23T12:02:05.729Z,69.66
2023-02-23T12:04:41.788Z,69.37
2023-02-23T12:07:41.685Z,69.50
2023-02-23T12:10:16.369Z,69.56
2023-02-23T12:12:53.010Z,69.65
2023-02-23T12:15:27.148Z,69.53
2023-02-23T12:18:03.026Z,69.40
2023-02-23T12:20:36.573Z,69.31
2023-02-23T12:23:10.208Z,69.43
2023-02-23T12:25:54.435Z,69.38
2023-02-23T12:29:20.124Z,69.43
2023-02-23T12:31:54.496Z,69.30
2023-02-23T12:34:49.624Z,69.35
2023-02-23T12:37:39.132Z,69.49
2023-02-23T12:40:23.214Z,69.52
2023-02-23T12:43:17.273Z,69.71
2023-02-23T12:46:02.998Z,69.75
2023-02-23T12:48:48.744Z,69.59
2023-02-23T12:51:34.155Z,69.59
2023-02-23T12:54:01.990Z,69.63
2023-02-23T12:56:45.155Z,69.58
2023-02-23T12:59:35.670Z,69.53
2023-02-23T13:02:41.288Z,69.52
2023-02-23T13:05:29.820Z,69.38
2023-02-23T13:08:23.395Z,69.40
2023-02-23T13:11:05.357Z,69.60
2023-02-23T13:13:48.091Z,69.50
2023-02-23T13:16:34.496Z,69.42
2023-02-23T13:19:27.482Z,69.25
2023-02-23T13:22:21.323Z,69.29
2023-02-23T13:24:49.833Z,69.20
2023-02-23T13:27:42.176Z,69.24
2023-02-23T13:30:13.189Z,69.35
2023-02-23T13:32:40.188Z,69.37
2023-02-23T13:35:20.338Z,69.42
2023-02-23T13:37:58.849Z,69.33
2023-02-23T13:41:17.520Z,69.51
2023-02-23T13:44:17.611Z,69.73
2023-02-23T13:47:16.341Z,69.67
2023-02-23T13:50:14.789Z,69.58
2023-02-23T13:52:44.399Z,69.71
2023-02-23T13:55:26.733Z,69.55
2023-02-23T13:58:06.988Z,69.44
2023-02-23T14:00:34.307Z,69.60
2023-02-23T14:03:06.397Z,69.76
2023-02-23T14:05:43.712Z,69.48
2023-02-23T14:08:32.974Z,69.52
2023-02-23T14:10:59.845Z,69.60
2023-02-23T14:13:31.455Z,69.51
2023-02-23T14:16:19.119Z,69.51
2023-02-23T14:19:05.847Z,69.49
2023-02-23T14:21:58.274Z,69.31
2023-02-23T14:24:27.278Z,69.45
2023-02-23T14:27:40.435Z,69.37
2023-02-23T14:30:11.780Z,69.53
2023-02-23T14:32:42.201Z,69.79
2023-02-23T14:35:40.019Z,69.57
2023-02-23T14:38:31.618Z,69.80
2023-02-23T14:41:03.342Z,69.60
2023-02-23T14:43:38.133Z,69.66
2023-02-23T14:46:13.141Z,69.78
2023-02-23T14:48:44.833Z,69.52
2023-02-23T14:51:33.874Z,69.18
2023-02-23T14:54:01.263Z,69.46
2023-02-23T14:56:42.271Z,69.61
2023-02-23T14:59:23.199Z,69.29
2023-02-23T15:01:51.989Z,69.55
2023-02-23T15:04:27.432Z,69.64
2023-02-23T15:07:01.069Z,69.42
2023-02-23T15:09:42.537Z,69.51
2023-02-23T15:12:18.433Z,69.60
2023-02-23T15:14:48.891Z,69.49
2023-02-23T15:17:23.666Z,69.60
2023-02-23T15:20:16.619Z,69.42
2023-02-23T15:22:52.161Z,69.56
2023-02-23T15:25:26.049Z,69.67
2023-02-23T15:27:53.069Z,69.78
2023-02-23T15:30:31.997Z,69.90
2023-02-23T15:33:14.172Z,69.60
2023-02-23T15:36:18.585Z,69.69
2023-02-23T15:38:51.118Z,69.63
2023-02-23T15:41:34.518Z,69.57
2023-02-23T15:44:20.692Z,69.48
2023-02-23T15:46:54.646Z,69.54
2023-02-23T15:49:24.536Z,69.64
2023-02-23T15:51:59.626Z,69.54
2023-02-23T15:54:52.377Z,69.57
2023-02-23T15:57:32.887Z,69.67
2023-02-23T16:00:09.580Z,69.80
2023-02-23T16:02:37.681Z,69.58
2023-02-23T16:05:25.828Z,69.68
2023-02-23T16:08:22.966Z,69.69
2023-02-23T16:11:02.150Z,69.66
2023-02-23T16:13:29.016Z,69.86
2023-02-23T16:15:56.587Z,69.66
2023-02-23T16:18:35.989Z,69.55
2023-02-23T16:21:04.771Z,69.67
2023-02-23T16:23:44.500Z,69.75
2023-02-23T16:26:19.855Z,69.63
2023-02-23T16:28:47.296Z,69.53
2023-02-23T16:31:25.751Z,69.40
2023-02-23T16:34:01.577Z,69.64
2023-02-23T16:36:39.742Z,69.67
2023-02-23T16:39:12.097Z,69.22
2023-02-23T16:41:39.229Z,69.78
2023-02-23T16:44:07.841Z,69.50
2023-02-23T16:47:03.324Z,69.42
2023-02-23T16:49:30.377Z,69.65
2023-02-23T16:51:58.487Z,69.48
2023-02-23T16:54:25.785Z,69.89
2023-02-23T16:56:55.816Z,69.73
2023-02-23T16:59:23.655Z,69.74
2023-02-23T17:01:50.824Z,69.84
2023-02-23T17:04:19.985Z,69.91
2023-02-23T17:06:52.706Z,69.88
2023-02-23T17:09:19.569Z,69.45
2023-02-23T17:11:47.013Z,69.39
2023-02-23T17:14:27.890Z,69.33
2023-02-23T17:16:54.797Z,69.38
2023-02-23T17:19:22.971Z,69.45
2023-02-23T17:21:51.304Z,69.15
2023-02-23T17:24:18.247Z,69.16
2023-02-23T17:26:45.588Z,68.99
2023-02-23T17:29:12.362Z,69.03
2023-02-23T17:31:40.221Z,69.00
2023-02-23T17:34:07.263Z,69.23
2023-02-23T17:36:34.274Z,68.72
2023-02-23T17:39:01.978Z,68.95
2023-02-23T17:41:28.891Z,69.18
2023-02-23T17:43:55.668Z,69.05
2023-02-23T17:46:23.903Z,68.97
2023-02-23T17:48:50.795Z,68.90
2023-02-23T17:51:19.245Z,69.12
2023-02-23T17:53:46.268Z,68.80
2023-02-23T17:56:13.488Z,68.85
2023-02-23T17:58:40.287Z,69.13
2023-02-23T18:01:07.930Z,69.22
2023-02-23T18:03:36.970Z,68.88
2023-02-23T18:06:06.220Z,69.17
2023-02-23T18:08:34.022Z,69.26
2023-02-23T18:11:01.444Z,68.99
2023-02-23T18:13:29.900Z,69.19
2023-02-23T18:16:02.514Z,68.96
2023-02-23T18:18:30.021Z,69.20
2023-02-23T18:20:59.065Z,69.20
2023-02-23T18:23:30.479Z,69.04
2023-02-23T18:26:24.638Z,69.15
2023-02-23T18:28:51.732Z,69.26
2023-02-23T18:31:25.534Z,69.06
2023-02-23T18:33:52.850Z,69.24
2023-02-23T18:36:27.907Z,69.11
2023-02-23T18:38:57.575Z,69.32
2023-02-23T18:41:24.981Z,69.45
2023-02-23T18:43:51.925Z,69.23
2023-02-23T18:46:19.340Z,69.32
2023-02-23T18:48:50.908Z,69.32
2023-02-23T18:51:19.390Z,69.13
2023-02-23T18:53:46.534Z,69.16
2023-02-23T18:56:25.036Z,69.00
2023-02-23T18:59:01.450Z,69.25
2023-02-23T19:01:33.193Z,69.32
2023-02-23T19:04:02.268Z,68.90
2023-02-23T19:06:29.741Z,69.32
2023-02-23T19:08:59.356Z,69.51
2023-02-23T19:11:30.362Z,69.38
2023-02-23T19:14:00.405Z,69.32
2023-02-23T19:16:30.940Z,69.46
2023-02-23T19:18:59.447Z,69.12
2023-02-23T19:21:26.333Z,69.45
2023-02-23T19:23:57.484Z,69.30
2023-02-23T19:26:25.961Z,69.38
2023-02-23T19:28:53.293Z,69.32
2023-02-23T19:31:22.621Z,69.16
2023-02-23T19:33:50.384Z,69.28
2023-02-23T19:36:21.222Z,69.59
2023-02-23T19:38:48.789Z,69.15
2023-02-23T19:41:19.814Z,69.06
2023-02-23T19:43:47.109Z,68.74
2023-02-23T19:46:17.110Z,68.39
2023-02-23T19:48:48.597Z,67.75
2023-02-23T19:51:15.439Z,67.73
2023-02-23T19:53:42.225Z,67.42
2023-02-23T19:56:12.884Z,67.24
2023-02-23T19:58:44.632Z,67.63
2023-02-23T20:01:16.727Z,67.60
2023-02-23T20:03:45.014Z,67.95
2023-02-23T20:06:15.294Z,67.44
2023-02-23T20:08:44.579Z,67.31
2023-02-23T20:11:12.158Z,67.61
2023-02-23T20:13:40.029Z,67.62
2023-02-23T20:16:10.360Z,67.42
2023-02-23T20:18:39.682Z,67.39
2023-02-23T20:21:13.524Z,67.25
2023-02-23T20:23:41.686Z,67.49
2023-02-23T20:26:14.113Z,67.50
2023-02-23T20:28:41.529Z,67.22
2023-02-23T20:31:13.871Z,67.16
2023-02-23T20:33:41.054Z,67.65
2023-02-23T20:36:08.395Z,67.45
2023-02-23T20:38:35.176Z,67.56
2023-02-23T20:41:04.073Z,67.59
2023-02-23T20:43:31.275Z,67.39
2023-02-23T20:46:00.820Z,67.38
2023-02-23T20:48:32.514Z,67.32
2023-02-23T20:51:01.347Z,67.31
2023-02-23T20:53:29.730Z,67.29
2023-02-23T20:55:56.582Z,67.33
2023-02-23T20:58:28.082Z,67.50
2023-02-23T21:00:58.158Z,67.34
2023-02-23T21:03:25.515Z,67.25
2023-02-23T21:05:52.665Z,67.39
2023-02-23T21:08:20.294Z,67.27
2023-02-23T21:10:48.655Z,67.50
2023-02-23T21:13:17.209Z,67.07
2023-02-23T21:15:45.363Z,67.27
2023-02-23T21:18:12.540Z,67.17
2023-02-23T21:20:40.019Z,67.28
2023-02-23T21:23:07.050Z,67.19
2023-02-23T21:25:33.977Z,67.29
2023-02-23T21:28:01.816Z,67.32
2023-02-23T21:30:29.763Z,66.87
2023-02-23T21:32:59.507Z,66.75
2023-02-23T21:35:26.463Z,67.12
2023-02-23T21:37:53.272Z,67.16
2023-02-23T21:40:21.242Z,66.95
2023-02-23T21:42:48.706Z,66.98
2023-02-23T21:45:17.062Z,66.98
2023-02-23T21:47:45.937Z,67.11
2023-02-23T21:50:37.578Z,66.88
2023-02-23T21:53:04.484Z,67.18
2023-02-23T21:55:31.276Z,67.06
2023-02-23T21:57:58.219Z,67.02
2023-02-23T22:00:25.272Z,67.00
2023-02-23T22:02:52.144Z,67.06
2023-02-23T22:05:20.116Z,66.79
2023-02-23T22:07:54.949Z,66.74
2023-02-23T22:10:24.698Z,66.81
2023-02-23T22:12:56.325Z,67.00
2023-02-23T22:15:27.690Z,67.06
2023-02-23T22:17:55.573Z,66.93
2023-02-23T22:20:22.515Z,66.68
2023-02-23T22:22:50.482Z,66.75
2023-02-23T22:25:19.272Z,67.05
2023-02-23T22:27:47.389Z,66.57
2023-02-23T22:30:15.910Z,66.60
2023-02-23T22:32:43.245Z,66.54
2023-02-23T22:35:10.870Z,66.76
2023-02-23T22:37:38.659Z,66.77
2023-02-23T22:40:13.287Z,66.80
2023-02-23T22:42:40.105Z,66.84
2023-02-23T22:45:07.728Z,66.44
2023-02-23T22:47:35.033Z,66.80
2023-02-23T22:50:02.036Z,66.39
2023-02-23T22:52:29.856Z,66.39
2023-02-23T22:54:56.665Z,66.50
2023-02-23T22:57:23.502Z,66.29
2023-02-23T23:00:00.356Z,66.26
2023-02-23T23:02:32.119Z,66.74
2023-02-23T23:05:01.715Z,66.56
2023-02-23T23:07:30.918Z,66.53
2023-02-23T23:10:02.451Z,66.41
2023-02-23T23:12:29.369Z,66.75
2023-02-23T23:15:01.155Z,66.41
2023-02-23T23:17:30.607Z,66.59
2023-02-23T23:20:00.188Z,66.35
2023-02-23T23:22:27.601Z,66.17
2023-02-23T23:24:54.426Z,66.21
2023-02-23T23:27:21.492Z,66.20
2023-02-23T23:29:49.067Z,66.22
2023-02-23T23:32:18.514Z,66.28
2023-02-23T23:34:48.023Z,66.08
2023-02-23T23:37:19.597Z,66.38
2023-02-23T23:39:46.605Z,66.32
2023-02-23T23:42:13.478Z,65.89
2023-02-23T23:44:40.228Z,66.42
2023-02-23T23:47:07.048Z,66.20
2023-02-23T23:49:39.758Z,66.45
2023-02-23T23:52:07.180Z,66.10
2023-02-23T23:54:38.977Z,66.51
2023-02-23T23:57:06.797Z,66.41
2023-02-23T23:59:35.350Z,66.21
